sensor_id;sensor_type;location;lat;lon;timestamp;pressure;altitude;pressure_sealevel;temperature;humidity
788;BME280;16074;42.708;23.312;2023-01-28T00:02:08;138474.91;;;0.65;100.00
788;BME280;16074;42.708;23.312;2023-01-28T00:04:39;138499.94;;;0.76;100.00
788;BME280;16074;42.708;23.312;2023-01-28T00:07:07;138503.53;;;0.77;100.00
788;BME280;16074;42.708;23.312;2023-01-28T00:09:35;138497.56;;;0.75;100.00
788;BME280;16074;42.708;23.312;2023-01-28T00:12:05;138482.06;;;0.68;100.00
788;BME280;16074;42.708;23.312;2023-01-28T00:14:33;138483.25;;;0.69;100.00
788;BME280;16074;42.708;23.312;2023-01-28T00:17:03;138478.47;;;0.67;100.00
788;BME280;16074;42.708;23.312;2023-01-28T00:19:33;138465.38;;;0.61;100.00
788;BME280;16074;42.708;23.312;2023-01-28T00:22:01;138459.38;;;0.59;100.00
788;BME280;16074;42.708;23.312;2023-01-28T00:24:31;138465.38;;;0.61;100.00
788;BME280;16074;42.708;23.312;2023-01-28T00:26:59;138483.25;;;0.69;100.00
788;BME280;16074;42.708;23.312;2023-01-28T00:29:28;138499.94;;;0.76;100.00
788;BME280;16074;42.708;23.312;2023-01-28T00:31:56;138510.69;;;0.80;100.00
788;BME280;16074;42.708;23.312;2023-01-28T00:34:28;138522.59;;;0.85;100.00
788;BME280;16074;42.708;23.312;2023-01-28T00:36:57;138515.47;;;0.82;100.00
788;BME280;16074;42.708;23.312;2023-01-28T00:39:26;138536.91;;;0.91;100.00
788;BME280;16074;42.708;23.312;2023-01-28T00:41:54;138536.91;;;0.91;100.00
788;BME280;16074;42.708;23.312;2023-01-28T00:44:23;138527.34;;;0.87;100.00
788;BME280;16074;42.708;23.312;2023-01-28T00:46:51;138550.03;;;0.97;100.00
788;BME280;16074;42.708;23.312;2023-01-28T00:49:21;138509.47;;;0.80;100.00
788;BME280;16074;42.708;23.312;2023-01-28T00:51:49;138495.16;;;0.74;100.00
788;BME280;16074;42.708;23.312;2023-01-28T00:54:19;138488.00;;;0.71;100.00
788;BME280;16074;42.708;23.312;2023-01-28T00:56:47;138474.91;;;0.65;100.00
788;BME280;16074;42.708;23.312;2023-01-28T00:59:16;138466.53;;;0.62;100.00
788;BME280;16074;42.708;23.312;2023-01-28T01:01:46;138484.44;;;0.69;100.00
788;BME280;16074;42.708;23.312;2023-01-28T01:04:15;138514.25;;;0.82;100.00
788;BME280;16074;42.708;23.312;2023-01-28T01:06:52;138507.09;;;0.79;100.00
788;BME280;16074;42.708;23.312;2023-01-28T01:09:22;138478.47;;;0.67;100.00
788;BME280;16074;42.708;23.312;2023-01-28T01:11:50;138466.53;;;0.62;100.00
788;BME280;16074;42.708;23.312;2023-01-28T01:14:18;138454.63;;;0.57;100.00
788;BME280;16074;42.708;23.312;2023-01-28T01:16:48;138464.16;;;0.61;100.00
788;BME280;16074;42.708;23.312;2023-01-28T01:19:18;138468.94;;;0.63;100.00
788;BME280;16074;42.708;23.312;2023-01-28T01:21:46;138467.75;;;0.62;100.00
788;BME280;16074;42.708;23.312;2023-01-28T01:24:16;138453.44;;;0.56;100.00
788;BME280;16074;42.708;23.312;2023-01-28T01:26:46;138463.00;;;0.60;100.00
788;BME280;16074;42.708;23.312;2023-01-28T01:29:15;138449.88;;;0.55;100.00
788;BME280;16074;42.708;23.312;2023-01-28T01:31:43;138455.84;;;0.57;100.00
788;BME280;16074;42.708;23.312;2023-01-28T01:34:13;138463.00;;;0.60;100.00
788;BME280;16074;42.708;23.312;2023-01-28T01:36:41;138457.00;;;0.58;100.00
788;BME280;16074;42.708;23.312;2023-01-28T01:39:11;138435.59;;;0.49;100.00
788;BME280;16074;42.708;23.312;2023-01-28T01:41:39;138433.19;;;0.48;100.00
788;BME280;16074;42.708;23.312;2023-01-28T01:47:10;138410.53;;;0.38;100.00
788;BME280;16074;42.708;23.312;2023-01-28T01:49:40;138406.97;;;0.37;100.00
788;BME280;16074;42.708;23.312;2023-01-28T01:52:11;138435.59;;;0.49;100.00
788;BME280;16074;42.708;23.312;2023-01-28T01:54:45;138435.59;;;0.49;100.00
788;BME280;16074;42.708;23.312;2023-01-28T01:57:17;138445.13;;;0.53;100.00
788;BME280;16074;42.708;23.312;2023-01-28T01:59:49;138431.97;;;0.47;100.00
788;BME280;16074;42.708;23.312;2023-01-28T02:02:19;138440.34;;;0.51;100.00
788;BME280;16074;42.708;23.312;2023-01-28T02:04:47;138453.44;;;0.56;100.00
788;BME280;16074;42.708;23.312;2023-01-28T02:07:17;138461.78;;;0.60;100.00
788;BME280;16074;42.708;23.312;2023-01-28T02:09:46;138451.06;;;0.55;100.00
788;BME280;16074;42.708;23.312;2023-01-28T02:12:18;138449.88;;;0.55;100.00
788;BME280;16074;42.708;23.312;2023-01-28T02:14:52;138466.53;;;0.62;100.00
788;BME280;16074;42.708;23.312;2023-01-28T02:17:23;138459.38;;;0.59;100.00
788;BME280;16074;42.708;23.312;2023-01-28T02:19:54;138439.13;;;0.50;100.00
788;BME280;16074;42.708;23.312;2023-01-28T02:22:55;138422.44;;;0.43;100.00
788;BME280;16074;42.708;23.312;2023-01-28T02:25:56;138428.44;;;0.46;100.00
788;BME280;16074;42.708;23.312;2023-01-28T02:28:36;138424.81;;;0.44;100.00
788;BME280;16074;42.708;23.312;2023-01-28T02:31:12;138435.59;;;0.49;100.00
788;BME280;16074;42.708;23.312;2023-01-28T02:33:47;138437.97;;;0.50;100.00
788;BME280;16074;42.708;23.312;2023-01-28T02:36:29;138408.13;;;0.37;100.00
788;BME280;16074;42.708;23.312;2023-01-28T02:39:05;138412.91;;;0.39;100.00
788;BME280;16074;42.708;23.312;2023-01-28T02:41:40;138437.97;;;0.50;100.00
788;BME280;16074;42.708;23.312;2023-01-28T02:44:12;138433.19;;;0.48;100.00
788;BME280;16074;42.708;23.312;2023-01-28T02:46:40;138439.13;;;0.50;100.00
788;BME280;16074;42.708;23.312;2023-01-28T02:49:29;138422.44;;;0.43;100.00
788;BME280;16074;42.708;23.312;2023-01-28T02:52:12;138418.88;;;0.42;100.00
788;BME280;16074;42.708;23.312;2023-01-28T02:54:46;138405.75;;;0.36;100.00
788;BME280;16074;42.708;23.312;2023-01-28T02:57:26;138393.81;;;0.31;100.00
788;BME280;16074;42.708;23.312;2023-01-28T03:00:04;138396.22;;;0.32;100.00
788;BME280;16074;42.708;23.312;2023-01-28T03:02:36;138399.81;;;0.34;100.00
788;BME280;16074;42.708;23.312;2023-01-28T03:05:15;138410.53;;;0.38;100.00
788;BME280;16074;42.708;23.312;2023-01-28T03:07:47;138391.44;;;0.30;100.00
788;BME280;16074;42.708;23.312;2023-01-28T03:10:18;138411.72;;;0.39;100.00
788;BME280;16074;42.708;23.312;2023-01-28T03:12:49;138393.81;;;0.31;100.00
788;BME280;16074;42.708;23.312;2023-01-28T03:15:40;138399.81;;;0.34;100.00
788;BME280;16074;42.708;23.312;2023-01-28T03:18:28;138396.22;;;0.32;100.00
788;BME280;16074;42.708;23.312;2023-01-28T03:21:18;138395.03;;;0.32;100.00
788;BME280;16074;42.708;23.312;2023-01-28T03:24:08;138420.06;;;0.42;100.00
788;BME280;16074;42.708;23.312;2023-01-28T03:27:06;138387.88;;;0.29;100.00
788;BME280;16074;42.708;23.312;2023-01-28T03:30:04;138373.56;;;0.23;100.00
788;BME280;16074;42.708;23.312;2023-01-28T03:32:55;138367.63;;;0.20;100.00
788;BME280;16074;42.708;23.312;2023-01-28T03:35:42;138360.50;;;0.17;100.00
788;BME280;16074;42.708;23.312;2023-01-28T03:38:29;138366.44;;;0.20;100.00
788;BME280;16074;42.708;23.312;2023-01-28T03:41:01;138364.03;;;0.19;100.00
788;BME280;16074;42.708;23.312;2023-01-28T03:43:30;138346.19;;;0.11;100.00
788;BME280;16074;42.708;23.312;2023-01-28T03:46:00;138335.44;;;0.07;100.00
788;BME280;16074;42.708;23.312;2023-01-28T03:48:30;138354.50;;;0.15;100.00
788;BME280;16074;42.708;23.312;2023-01-28T03:51:01;138340.19;;;0.09;100.00
788;BME280;16074;42.708;23.312;2023-01-28T03:53:29;138334.25;;;0.06;100.00
788;BME280;16074;42.708;23.312;2023-01-28T03:55:58;138340.19;;;0.09;100.00
788;BME280;16074;42.708;23.312;2023-01-28T03:58:26;138331.88;;;0.05;100.00
788;BME280;16074;42.708;23.312;2023-01-28T04:01:13;138343.81;;;0.10;100.00
788;BME280;16074;42.708;23.312;2023-01-28T04:03:43;138325.88;;;0.03;100.00
788;BME280;16074;42.708;23.312;2023-01-28T04:06:16;138347.34;;;0.12;100.00
788;BME280;16074;42.708;23.312;2023-01-28T04:08:54;138341.41;;;0.09;100.00
788;BME280;16074;42.708;23.312;2023-01-28T04:11:25;138354.50;;;0.15;100.00
788;BME280;16074;42.708;23.312;2023-01-28T04:13:55;138339.03;;;0.08;100.00
788;BME280;16074;42.708;23.312;2023-01-28T04:16:25;138358.09;;;0.16;100.00
788;BME280;16074;42.708;23.312;2023-01-28T04:18:54;138340.19;;;0.09;100.00
788;BME280;16074;42.708;23.312;2023-01-28T04:21:24;138353.34;;;0.14;100.00
788;BME280;16074;42.708;23.312;2023-01-28T04:23:52;138375.97;;;0.24;100.00
788;BME280;16074;42.708;23.312;2023-01-28T04:26:20;138356.88;;;0.16;100.00
788;BME280;16074;42.708;23.312;2023-01-28T04:28:48;138359.28;;;0.17;100.00
788;BME280;16074;42.708;23.312;2023-01-28T04:31:17;138352.13;;;0.14;100.00
788;BME280;16074;42.708;23.312;2023-01-28T04:34:05;138334.25;;;0.06;100.00
788;BME280;16074;42.708;23.312;2023-01-28T04:36:50;138334.25;;;0.06;100.00
788;BME280;16074;42.708;23.312;2023-01-28T04:39:28;138336.66;;;0.07;100.00
788;BME280;16074;42.708;23.312;2023-01-28T04:42:15;138308.03;;;-0.04;100.00
788;BME280;16074;42.708;23.312;2023-01-28T04:45:05;138324.72;;;0.02;100.00
788;BME280;16074;42.708;23.312;2023-01-28T04:47:47;138321.13;;;0.01;100.00
788;BME280;16074;42.708;23.312;2023-01-28T04:50:35;138316.41;;;-0.01;100.00
788;BME280;16074;42.708;23.312;2023-01-28T04:53:11;138316.41;;;-0.01;100.00
788;BME280;16074;42.708;23.312;2023-01-28T04:56:06;138336.66;;;0.07;100.00
788;BME280;16074;42.708;23.312;2023-01-28T04:58:35;138310.44;;;-0.03;100.00
788;BME280;16074;42.708;23.312;2023-01-28T05:01:08;138316.41;;;-0.01;100.00
788;BME280;16074;42.708;23.312;2023-01-28T05:03:36;138336.66;;;0.07;100.00
788;BME280;16074;42.708;23.312;2023-01-28T05:06:07;138343.81;;;0.10;100.00
788;BME280;16074;42.708;23.312;2023-01-28T05:08:44;138349.72;;;0.13;100.00
788;BME280;16074;42.708;23.312;2023-01-28T05:11:14;138335.44;;;0.07;100.00
788;BME280;16074;42.708;23.312;2023-01-28T05:13:44;138323.50;;;0.02;100.00
788;BME280;16074;42.708;23.312;2023-01-28T05:16:13;138330.66;;;0.05;100.00
788;BME280;16074;42.708;23.312;2023-01-28T05:18:41;138331.88;;;0.05;100.00
788;BME280;16074;42.708;23.312;2023-01-28T05:21:15;138344.97;;;0.11;100.00
788;BME280;16074;42.708;23.312;2023-01-28T05:23:45;138321.13;;;0.01;100.00
788;BME280;16074;42.708;23.312;2023-01-28T05:26:13;138314.03;;;-0.02;100.00
788;BME280;16074;42.708;23.312;2023-01-28T05:28:43;138330.66;;;0.05;100.00
788;BME280;16074;42.708;23.312;2023-01-28T05:31:11;138329.50;;;0.04;100.00
788;BME280;16074;42.708;23.312;2023-01-28T05:33:39;138328.28;;;0.04;100.00
788;BME280;16074;42.708;23.312;2023-01-28T05:36:10;138329.50;;;0.04;100.00
788;BME280;16074;42.708;23.312;2023-01-28T05:38:41;138316.41;;;-0.01;100.00
788;BME280;16074;42.708;23.312;2023-01-28T05:41:09;138324.72;;;0.02;100.00
788;BME280;16074;42.708;23.312;2023-01-28T05:43:39;138337.81;;;0.08;100.00
788;BME280;16074;42.708;23.312;2023-01-28T05:46:27;138340.19;;;0.09;100.00
788;BME280;16074;42.708;23.312;2023-01-28T05:49:16;138316.41;;;-0.01;100.00
788;BME280;16074;42.708;23.312;2023-01-28T05:52:05;138310.44;;;-0.03;100.00
788;BME280;16074;42.708;23.312;2023-01-28T05:54:35;138310.44;;;-0.03;100.00
788;BME280;16074;42.708;23.312;2023-01-28T05:57:03;138319.97;;;0.00;100.00
788;BME280;16074;42.708;23.312;2023-01-28T05:59:32;138317.56;;;-0.01;100.00
788;BME280;16074;42.708;23.312;2023-01-28T06:02:00;138325.88;;;0.03;100.00
788;BME280;16074;42.708;23.312;2023-01-28T06:04:29;138331.88;;;0.05;100.00
788;BME280;16074;42.708;23.312;2023-01-28T06:06:58;138315.19;;;-0.02;100.00
788;BME280;16074;42.708;23.312;2023-01-28T06:09:27;138331.88;;;0.05;100.00
788;BME280;16074;42.708;23.312;2023-01-28T06:11:56;138322.34;;;0.01;100.00
788;BME280;16074;42.708;23.312;2023-01-28T06:14:25;138325.88;;;0.03;100.00
788;BME280;16074;42.708;23.312;2023-01-28T06:17:22;138324.72;;;0.02;100.00
788;BME280;16074;42.708;23.312;2023-01-28T06:20:01;138335.44;;;0.07;100.00
788;BME280;16074;42.708;23.312;2023-01-28T06:22:31;138354.50;;;0.15;100.00
788;BME280;16074;42.708;23.312;2023-01-28T06:24:59;138347.34;;;0.12;100.00
788;BME280;16074;42.708;23.312;2023-01-28T06:27:30;138341.41;;;0.09;100.00
788;BME280;16074;42.708;23.312;2023-01-28T06:29:58;138349.72;;;0.13;100.00
788;BME280;16074;42.708;23.312;2023-01-28T06:32:26;138319.97;;;0.00;100.00
788;BME280;16074;42.708;23.312;2023-01-28T06:34:55;138331.88;;;0.05;100.00
788;BME280;16074;42.708;23.312;2023-01-28T06:37:23;138327.09;;;0.03;100.00
788;BME280;16074;42.708;23.312;2023-01-28T06:39:52;138352.13;;;0.14;100.00
788;BME280;16074;42.708;23.312;2023-01-28T06:42:20;138374.78;;;0.23;100.00
788;BME280;16074;42.708;23.312;2023-01-28T06:44:50;138389.06;;;0.29;100.00
788;BME280;16074;42.708;23.312;2023-01-28T06:47:18;138373.56;;;0.23;100.00
788;BME280;16074;42.708;23.312;2023-01-28T06:49:46;138378.34;;;0.25;100.00
788;BME280;16074;42.708;23.312;2023-01-28T06:52:14;138373.56;;;0.23;100.00
788;BME280;16074;42.708;23.312;2023-01-28T06:54:43;138384.34;;;0.27;100.00
788;BME280;16074;42.708;23.312;2023-01-28T06:57:11;138375.97;;;0.24;100.00
788;BME280;16074;42.708;23.312;2023-01-28T06:59:39;138378.34;;;0.25;100.00
788;BME280;16074;42.708;23.312;2023-01-28T07:02:10;138365.25;;;0.19;100.00
788;BME280;16074;42.708;23.312;2023-01-28T07:04:38;138378.34;;;0.25;100.00
788;BME280;16074;42.708;23.312;2023-01-28T07:07:07;138372.41;;;0.22;100.00
788;BME280;16074;42.708;23.312;2023-01-28T07:09:35;138390.28;;;0.30;100.00
788;BME280;16074;42.708;23.312;2023-01-28T07:12:03;138399.81;;;0.34;100.00
788;BME280;16074;42.708;23.312;2023-01-28T07:14:31;138386.66;;;0.28;100.00
788;BME280;16074;42.708;23.312;2023-01-28T07:17:00;138436.75;;;0.49;100.00
788;BME280;16074;42.708;23.312;2023-01-28T07:19:29;138411.72;;;0.39;100.00
788;BME280;16074;42.708;23.312;2023-01-28T07:21:58;138460.59;;;0.59;100.00
788;BME280;16074;42.708;23.312;2023-01-28T07:24:29;138405.75;;;0.36;100.00
788;BME280;16074;42.708;23.312;2023-01-28T07:26:57;138383.13;;;0.27;100.00
788;BME280;16074;42.708;23.312;2023-01-28T07:29:25;138422.44;;;0.43;100.00
788;BME280;16074;42.708;23.312;2023-01-28T07:31:53;138390.28;;;0.30;100.00
788;BME280;16074;42.708;23.312;2023-01-28T07:34:22;138415.28;;;0.40;100.00
788;BME280;16074;42.708;23.312;2023-01-28T07:36:52;138430.81;;;0.47;100.00
788;BME280;16074;42.708;23.312;2023-01-28T07:39:23;138417.66;;;0.41;100.00
788;BME280;16074;42.708;23.312;2023-01-28T07:41:51;138415.28;;;0.40;100.00
788;BME280;16074;42.708;23.312;2023-01-28T07:44:35;138454.63;;;0.57;100.00
788;BME280;16074;42.708;23.312;2023-01-28T07:47:05;138472.53;;;0.64;100.00
788;BME280;16074;42.708;23.312;2023-01-28T07:49:33;138442.72;;;0.52;100.00
788;BME280;16074;42.708;23.312;2023-01-28T07:52:03;138449.88;;;0.55;100.00
788;BME280;16074;42.708;23.312;2023-01-28T07:54:31;138482.06;;;0.68;100.00
788;BME280;16074;42.708;23.312;2023-01-28T07:57:00;138445.13;;;0.53;100.00
788;BME280;16074;42.708;23.312;2023-01-28T07:59:28;138467.75;;;0.62;100.00
788;BME280;16074;42.708;23.312;2023-01-28T08:01:57;138508.31;;;0.79;100.00
788;BME280;16074;42.708;23.312;2023-01-28T08:04:25;138498.78;;;0.75;100.00
788;BME280;16074;42.708;23.312;2023-01-28T08:06:53;138476.09;;;0.66;100.00
788;BME280;16074;42.708;23.312;2023-01-28T08:09:24;138471.31;;;0.64;100.00
788;BME280;16074;42.708;23.312;2023-01-28T08:11:52;138480.84;;;0.68;100.00
788;BME280;16074;42.708;23.312;2023-01-28T08:14:20;138502.31;;;0.77;100.00
788;BME280;16074;42.708;23.312;2023-01-28T08:16:48;138502.31;;;0.77;100.00
788;BME280;16074;42.708;23.312;2023-01-28T08:19:17;138490.41;;;0.72;100.00
788;BME280;16074;42.708;23.312;2023-01-28T08:21:47;138507.09;;;0.79;100.00
788;BME280;16074;42.708;23.312;2023-01-28T08:24:15;138489.22;;;0.71;100.00
788;BME280;16074;42.708;23.312;2023-01-28T08:26:46;138498.78;;;0.75;100.00
788;BME280;16074;42.708;23.312;2023-01-28T08:29:15;138491.63;;;0.72;100.00
788;BME280;16074;42.708;23.312;2023-01-28T08:31:43;138478.47;;;0.67;100.00
788;BME280;16074;42.708;23.312;2023-01-28T08:34:11;138529.75;;;0.88;100.00
788;BME280;16074;42.708;23.312;2023-01-28T08:36:39;138542.88;;;0.94;100.00
788;BME280;16074;42.708;23.312;2023-01-28T08:39:08;138561.97;;;1.02;100.00
788;BME280;16074;42.708;23.312;2023-01-28T08:41:36;138591.78;;;1.14;100.00
788;BME280;16074;42.708;23.312;2023-01-28T08:44:05;138590.56;;;1.13;100.00
788;BME280;16074;42.708;23.312;2023-01-28T08:46:34;138594.16;;;1.15;100.00
788;BME280;16074;42.708;23.312;2023-01-28T08:49:02;138597.72;;;1.16;100.00
788;BME280;16074;42.708;23.312;2023-01-28T08:51:30;138602.50;;;1.18;100.00
788;BME280;16074;42.708;23.312;2023-01-28T08:53:58;138608.50;;;1.21;100.00
788;BME280;16074;42.708;23.312;2023-01-28T08:56:28;138629.97;;;1.30;100.00
788;BME280;16074;42.708;23.312;2023-01-28T08:58:56;138658.56;;;1.42;100.00
788;BME280;16074;42.708;23.312;2023-01-28T09:01:25;138640.69;;;1.34;100.00
788;BME280;16074;42.708;23.312;2023-01-28T09:03:56;138635.91;;;1.32;100.00
788;BME280;16074;42.708;23.312;2023-01-28T09:06:24;138678.88;;;1.50;100.00
788;BME280;16074;42.708;23.312;2023-01-28T09:08:55;138702.75;;;1.60;100.00
788;BME280;16074;42.708;23.312;2023-01-28T09:11:24;138681.28;;;1.51;100.00
788;BME280;16074;42.708;23.312;2023-01-28T09:13:52;138706.31;;;1.62;100.00
788;BME280;16074;42.708;23.312;2023-01-28T09:16:20;138705.16;;;1.61;100.00
788;BME280;16074;42.708;23.312;2023-01-28T09:18:50;138692.00;;;1.56;100.00
788;BME280;16074;42.708;23.312;2023-01-28T09:21:20;138687.22;;;1.54;100.00
788;BME280;16074;42.708;23.312;2023-01-28T09:23:48;138656.22;;;1.41;100.00
788;BME280;16074;42.708;23.312;2023-01-28T09:26:16;138678.88;;;1.50;100.00
788;BME280;16074;42.708;23.312;2023-01-28T09:28:46;138702.75;;;1.60;100.00
788;BME280;16074;42.708;23.312;2023-01-28T09:31:14;138686.06;;;1.53;100.00
788;BME280;16074;42.708;23.312;2023-01-28T09:33:43;138674.13;;;1.48;100.00
788;BME280;16074;42.708;23.312;2023-01-28T09:36:12;138658.56;;;1.42;100.00
788;BME280;16074;42.708;23.312;2023-01-28T09:38:41;138683.66;;;1.52;100.00
788;BME280;16074;42.708;23.312;2023-01-28T09:41:27;138638.31;;;1.33;100.00
788;BME280;16074;42.708;23.312;2023-01-28T09:44:03;138669.34;;;1.46;100.00
788;BME280;16074;42.708;23.312;2023-01-28T09:46:34;138700.38;;;1.59;100.00
788;BME280;16074;42.708;23.312;2023-01-28T09:49:11;138706.31;;;1.62;100.00
788;BME280;16074;42.708;23.312;2023-01-28T09:51:47;138702.75;;;1.60;100.00
788;BME280;16074;42.708;23.312;2023-01-28T09:54:28;138680.06;;;1.51;100.00
788;BME280;16074;42.708;23.312;2023-01-28T09:57:03;138713.50;;;1.65;100.00
788;BME280;16074;42.708;23.312;2023-01-28T09:59:33;138718.25;;;1.67;100.00
788;BME280;16074;42.708;23.312;2023-01-28T10:02:22;138738.53;;;1.75;100.00
788;BME280;16074;42.708;23.312;2023-01-28T10:04:58;138762.41;;;1.85;100.00
788;BME280;16074;42.708;23.312;2023-01-28T10:07:36;138756.47;;;1.83;100.00
788;BME280;16074;42.708;23.312;2023-01-28T10:10:11;138756.47;;;1.83;100.00
788;BME280;16074;42.708;23.312;2023-01-28T10:12:58;138755.25;;;1.82;100.00
788;BME280;16074;42.708;23.312;2023-01-28T10:15:47;138740.94;;;1.76;100.00
788;BME280;16074;42.708;23.312;2023-01-28T10:18:28;138734.97;;;1.74;100.00
788;BME280;16074;42.708;23.312;2023-01-28T10:21:02;138725.44;;;1.70;100.00
788;BME280;16074;42.708;23.312;2023-01-28T10:23:43;138635.91;;;1.32;100.00
788;BME280;16074;42.708;23.312;2023-01-28T10:26:22;138643.09;;;1.35;100.00
788;BME280;16074;42.708;23.312;2023-01-28T10:28:54;138632.34;;;1.31;100.00
788;BME280;16074;42.708;23.312;2023-01-28T10:31:29;138625.19;;;1.28;100.00
788;BME280;16074;42.708;23.312;2023-01-28T10:33:59;138637.13;;;1.33;100.00
788;BME280;16074;42.708;23.312;2023-01-28T10:36:30;138686.06;;;1.53;100.00
788;BME280;16074;42.708;23.312;2023-01-28T10:39:00;138705.16;;;1.61;100.00
788;BME280;16074;42.708;23.312;2023-01-28T10:41:28;138714.69;;;1.65;100.00
788;BME280;16074;42.708;23.312;2023-01-28T10:43:56;138703.94;;;1.61;100.00
788;BME280;16074;42.708;23.312;2023-01-28T10:46:28;138700.38;;;1.59;100.00
788;BME280;16074;42.708;23.312;2023-01-28T10:49:00;138713.50;;;1.65;100.00
788;BME280;16074;42.708;23.312;2023-01-28T10:51:35;138706.31;;;1.62;100.00
788;BME280;16074;42.708;23.312;2023-01-28T10:54:17;138712.31;;;1.64;100.00
788;BME280;16074;42.708;23.312;2023-01-28T10:56:46;138709.94;;;1.63;100.00
788;BME280;16074;42.708;23.312;2023-01-28T10:59:22;138705.16;;;1.61;100.00
788;BME280;16074;42.708;23.312;2023-01-28T11:01:53;138690.81;;;1.55;100.00
788;BME280;16074;42.708;23.312;2023-01-28T11:04:24;138714.69;;;1.65;100.00
788;BME280;16074;42.708;23.312;2023-01-28T11:06:55;138761.25;;;1.85;100.00
788;BME280;16074;42.708;23.312;2023-01-28T11:09:27;138785.13;;;1.95;100.00
788;BME280;16074;42.708;23.312;2023-01-28T11:11:57;138801.81;;;2.02;100.00
788;BME280;16074;42.708;23.312;2023-01-28T11:14:26;138835.25;;;2.16;100.00
788;BME280;16074;42.708;23.312;2023-01-28T11:16:56;138856.75;;;2.25;100.00
788;BME280;16074;42.708;23.312;2023-01-28T11:19:33;138867.47;;;2.29;100.00
788;BME280;16074;42.708;23.312;2023-01-28T11:22:03;138828.09;;;2.13;100.00
788;BME280;16074;42.708;23.312;2023-01-28T11:24:33;138798.25;;;2.00;100.00
788;BME280;16074;42.708;23.312;2023-01-28T11:27:11;138808.97;;;2.05;100.00
788;BME280;16074;42.708;23.312;2023-01-28T11:29:42;138838.88;;;2.17;100.00
788;BME280;16074;42.708;23.312;2023-01-28T11:32:18;138819.75;;;2.09;100.00
788;BME280;16074;42.708;23.312;2023-01-28T11:34:50;138834.09;;;2.15;100.00
788;BME280;16074;42.708;23.312;2023-01-28T11:37:20;138842.41;;;2.19;100.00
788;BME280;16074;42.708;23.312;2023-01-28T11:40:01;138861.53;;;2.27;100.00
788;BME280;16074;42.708;23.312;2023-01-28T11:42:30;138871.09;;;2.31;100.00
788;BME280;16074;42.708;23.312;2023-01-28T11:44:58;138867.47;;;2.29;100.00
788;BME280;16074;42.708;23.312;2023-01-28T11:47:46;138873.47;;;2.32;100.00
788;BME280;16074;42.708;23.312;2023-01-28T11:50:24;138881.81;;;2.35;100.00
788;BME280;16074;42.708;23.312;2023-01-28T11:53:06;138900.94;;;2.43;100.00
788;BME280;16074;42.708;23.312;2023-01-28T11:55:51;138922.44;;;2.52;100.00
788;BME280;16074;42.708;23.312;2023-01-28T11:58:31;138930.78;;;2.55;100.00
788;BME280;16074;42.708;23.312;2023-01-28T12:01:08;138945.13;;;2.61;100.00
788;BME280;16074;42.708;23.312;2023-01-28T12:03:54;138979.81;;;2.76;100.00
788;BME280;16074;42.708;23.312;2023-01-28T12:06:38;138989.38;;;2.80;100.00
788;BME280;16074;42.708;23.312;2023-01-28T12:09:16;138987.00;;;2.79;100.00
788;BME280;16074;42.708;23.312;2023-01-28T12:11:58;139029.97;;;2.97;100.00
788;BME280;16074;42.708;23.312;2023-01-28T12:15:00;138961.88;;;2.68;99.96
788;BME280;16074;42.708;23.312;2023-01-28T12:17:43;138937.97;;;2.58;99.81
788;BME280;16074;42.708;23.312;2023-01-28T12:20:18;138943.97;;;2.61;100.00
788;BME280;16074;42.708;23.312;2023-01-28T12:23:02;138929.63;;;2.55;100.00
788;BME280;16074;42.708;23.312;2023-01-28T12:25:44;138910.50;;;2.47;100.00
788;BME280;16074;42.708;23.312;2023-01-28T12:28:29;138917.66;;;2.50;100.00
788;BME280;16074;42.708;23.312;2023-01-28T12:31:13;138862.72;;;2.27;100.00
788;BME280;16074;42.708;23.312;2023-01-28T12:33:59;138854.38;;;2.24;100.00
788;BME280;16074;42.708;23.312;2023-01-28T12:36:42;138874.66;;;2.32;100.00
788;BME280;16074;42.708;23.312;2023-01-28T12:39:25;138885.44;;;2.36;100.00
788;BME280;16074;42.708;23.312;2023-01-28T12:42:03;138847.19;;;2.21;100.00
788;BME280;16074;42.708;23.312;2023-01-28T12:44:38;138838.88;;;2.17;100.00
788;BME280;16074;42.708;23.312;2023-01-28T12:47:10;138812.59;;;2.06;100.00
788;BME280;16074;42.708;23.312;2023-01-28T12:49:44;138807.81;;;2.04;100.00
788;BME280;16074;42.708;23.312;2023-01-28T12:52:18;138786.31;;;1.95;100.00
788;BME280;16074;42.708;23.312;2023-01-28T12:54:55;138822.13;;;2.10;100.00
788;BME280;16074;42.708;23.312;2023-01-28T12:57:27;138844.81;;;2.20;100.00
788;BME280;16074;42.708;23.312;2023-01-28T13:00:05;138860.38;;;2.26;100.00
788;BME280;16074;42.708;23.312;2023-01-28T13:02:45;138841.25;;;2.18;100.00
788;BME280;16074;42.708;23.312;2023-01-28T13:05:20;138867.47;;;2.29;100.00
788;BME280;16074;42.708;23.312;2023-01-28T13:07:53;138891.38;;;2.39;100.00
788;BME280;16074;42.708;23.312;2023-01-28T13:10:27;138865.09;;;2.28;100.00
788;BME280;16074;42.708;23.312;2023-01-28T13:12:56;138862.72;;;2.27;100.00
788;BME280;16074;42.708;23.312;2023-01-28T13:15:27;138889.00;;;2.38;100.00
788;BME280;16074;42.708;23.312;2023-01-28T13:17:57;138904.53;;;2.44;100.00
788;BME280;16074;42.708;23.312;2023-01-28T13:20:35;138922.44;;;2.52;100.00
788;BME280;16074;42.708;23.312;2023-01-28T13:23:05;138921.28;;;2.51;100.00
788;BME280;16074;42.708;23.312;2023-01-28T13:25:49;138935.56;;;2.57;100.00
788;BME280;16074;42.708;23.312;2023-01-28T13:28:28;138961.88;;;2.68;100.00
788;BME280;16074;42.708;23.312;2023-01-28T13:31:04;138934.41;;;2.57;100.00
788;BME280;16074;42.708;23.312;2023-01-28T13:33:35;138928.44;;;2.54;99.34
788;BME280;16074;42.708;23.312;2023-01-28T13:36:15;138923.66;;;2.52;100.00